FBD1152 UNKL-UNWW
Flight info
| Callsign | FBD1152 |
|---|---|
| Flight time | 1h 23m |
| Altitude | 8000 |
| Route | ROVNO2F ROVNO R823 BAKMI B156 DEDIR DEDIR1P |
| Aircraft | DA62/L-SDFGRY/C |
Departure
| Time | 2026-05-01 09:22 |
|---|---|
| Airport | Krasnoyarsk International Airport (UNKL) |
Arrival
| Time | 2026-05-01 10:45 |
|---|---|
| Airport | Spichenkovo Airport (UNWW) |
| Time | Latitude | Longitude | Altitude | Speed | Heading |
|---|---|---|---|---|---|
| 2026-05-01 08:55 | 56.17865 | 92.48125 | 945 ft | 0 kts | 112° |
| 2026-05-01 08:59 | 56.17866 | 92.48124 | 945 ft | 0 kts | 112° |
| 2026-05-01 09:09 | 56.17866 | 92.48123 | 945 ft | 0 kts | 112° |
| 2026-05-01 09:11 | 56.17859 | 92.48154 | 945 ft | 5 kts | 121° |
| 2026-05-01 09:11 | 56.17829 | 92.48155 | 945 ft | 5 kts | 203° |
| 2026-05-01 09:12 | 56.17809 | 92.48143 | 945 ft | 5 kts | 180° |
| 2026-05-01 09:12 | 56.17781 | 92.48212 | 945 ft | 9 kts | 111° |
| 2026-05-01 09:12 | 56.17758 | 92.48315 | 945 ft | 9 kts | 114° |
| 2026-05-01 09:12 | 56.17721 | 92.48399 | 945 ft | 9 kts | 141° |
| 2026-05-01 09:13 | 56.17675 | 92.48466 | 945 ft | 8 kts | 142° |
| 2026-05-01 09:13 | 56.17628 | 92.48528 | 946 ft | 8 kts | 145° |
| 2026-05-01 09:13 | 56.17606 | 92.48555 | 946 ft | 0 kts | 142° |
| 2026-05-01 09:15 | 56.17607 | 92.48555 | 946 ft | 0 kts | 142° |
| 2026-05-01 09:17 | 56.17520 | 92.48666 | 946 ft | 13 kts | 143° |
| 2026-05-01 09:18 | 56.17449 | 92.48690 | 946 ft | 10 kts | 253° |
| 2026-05-01 09:18 | 56.17451 | 92.48655 | 946 ft | 0 kts | 294° |
| 2026-05-01 09:21 | 56.17475 | 92.48556 | 946 ft | 33 kts | 293° |
| 2026-05-01 09:21 | 56.17637 | 92.47875 | 946 ft | 81 kts | 293° |
| 2026-05-01 09:21 | 56.18166 | 92.45755 | 1426 ft | 85 kts | 293° |
| 2026-05-01 09:22 | 56.18633 | 92.43593 | 2065 ft | 92 kts | 290° |
| 2026-05-01 09:22 | 56.19123 | 92.41487 | 2703 ft | 88 kts | 291° |
| 2026-05-01 09:23 | 56.19352 | 92.40530 | 3018 ft | 81 kts | 290° |
| 2026-05-01 09:23 | 56.19837 | 92.38613 | 3669 ft | 83 kts | 291° |
| 2026-05-01 09:24 | 56.19134 | 92.37714 | 4296 ft | 72 kts | 194° |
| 2026-05-01 09:24 | 56.18627 | 92.37623 | 4473 ft | 78 kts | 216° |
| 2026-05-01 09:24 | 56.17770 | 92.36089 | 4905 ft | 103 kts | 228° |
| 2026-05-01 09:25 | 56.16581 | 92.33912 | 5154 ft | 136 kts | 227° |
| 2026-05-01 09:25 | 56.15251 | 92.31348 | 5517 ft | 147 kts | 229° |
| 2026-05-01 09:26 | 56.14762 | 92.30401 | 5648 ft | 150 kts | 230° |
| 2026-05-01 09:26 | 56.13674 | 92.28317 | 5940 ft | 158 kts | 230° |
| 2026-05-01 09:26 | 56.12918 | 92.26801 | 5994 ft | 170 kts | 229° |
| 2026-05-01 09:27 | 56.11311 | 92.23726 | 6166 ft | 174 kts | 229° |
| 2026-05-01 09:27 | 56.10492 | 92.22172 | 6405 ft | 168 kts | 227° |
| 2026-05-01 09:27 | 56.09676 | 92.20613 | 6527 ft | 175 kts | 229° |
| 2026-05-01 09:28 | 56.08841 | 92.18989 | 6498 ft | 179 kts | 227° |
| 2026-05-01 09:28 | 56.07991 | 92.17337 | 6621 ft | 180 kts | 229° |
| 2026-05-01 09:28 | 56.07158 | 92.15739 | 6701 ft | 176 kts | 227° |
| 2026-05-01 09:28 | 56.06312 | 92.14121 | 6805 ft | 179 kts | 229° |
| 2026-05-01 09:29 | 56.04669 | 92.10974 | 7140 ft | 172 kts | 230° |
| 2026-05-01 09:29 | 56.03849 | 92.09404 | 7263 ft | 173 kts | 230° |
| 2026-05-01 09:30 | 56.02194 | 92.06224 | 7305 ft | 179 kts | 227° |
| 2026-05-01 09:30 | 56.01337 | 92.04589 | 7317 ft | 182 kts | 227° |
| 2026-05-01 09:30 | 55.99591 | 92.01263 | 7446 ft | 184 kts | 229° |
| 2026-05-01 09:31 | 55.98715 | 91.99590 | 7475 ft | 185 kts | 230° |
| 2026-05-01 09:31 | 55.97835 | 91.97906 | 7502 ft | 185 kts | 229° |
| 2026-05-01 09:31 | 55.96069 | 91.94550 | 7592 ft | 185 kts | 230° |
| 2026-05-01 09:32 | 55.95185 | 91.92870 | 7647 ft | 185 kts | 230° |
| 2026-05-01 09:32 | 55.93494 | 91.89660 | 8075 ft | 171 kts | 231° |
| 2026-05-01 09:32 | 55.92662 | 91.88074 | 8094 ft | 179 kts | 231° |
| 2026-05-01 09:33 | 55.91796 | 91.86429 | 8092 ft | 184 kts | 230° |
| 2026-05-01 09:33 | 55.90914 | 91.84757 | 8095 ft | 186 kts | 230° |
| 2026-05-01 09:33 | 55.89192 | 91.81508 | 8090 ft | 174 kts | 231° |
| 2026-05-01 09:34 | 55.88343 | 91.79894 | 8090 ft | 181 kts | 231° |
| 2026-05-01 09:34 | 55.87470 | 91.78239 | 8094 ft | 185 kts | 230° |
| 2026-05-01 09:34 | 55.85675 | 91.74851 | 8095 ft | 190 kts | 230° |
| 2026-05-01 09:35 | 55.84764 | 91.73136 | 8093 ft | 190 kts | 230° |
| 2026-05-01 09:35 | 55.82942 | 91.69699 | 8100 ft | 192 kts | 230° |
| 2026-05-01 09:35 | 55.82027 | 91.67974 | 8095 ft | 192 kts | 230° |
| 2026-05-01 09:36 | 55.81110 | 91.66253 | 8093 ft | 188 kts | 230° |
| 2026-05-01 09:36 | 55.80238 | 91.64617 | 8090 ft | 178 kts | 230° |
| 2026-05-01 09:36 | 55.79397 | 91.63036 | 8090 ft | 181 kts | 230° |
| 2026-05-01 09:36 | 55.78520 | 91.61387 | 8091 ft | 186 kts | 230° |
| 2026-05-01 09:37 | 55.77625 | 91.59708 | 8092 ft | 188 kts | 230° |
| 2026-05-01 09:37 | 55.75817 | 91.56319 | 8091 ft | 190 kts | 230° |
| 2026-05-01 09:37 | 55.74903 | 91.54610 | 8091 ft | 190 kts | 230° |
| 2026-05-01 09:38 | 55.73077 | 91.51196 | 8094 ft | 191 kts | 230° |
| 2026-05-01 09:38 | 55.72158 | 91.49479 | 8090 ft | 192 kts | 230° |
| 2026-05-01 09:38 | 55.71239 | 91.47765 | 8083 ft | 191 kts | 230° |
| 2026-05-01 09:39 | 55.69417 | 91.44367 | 8094 ft | 190 kts | 230° |
| 2026-05-01 09:39 | 55.68515 | 91.42689 | 8095 ft | 191 kts | 230° |
| 2026-05-01 09:39 | 55.67595 | 91.40975 | 8098 ft | 192 kts | 230° |
| 2026-05-01 09:40 | 55.66674 | 91.39264 | 8101 ft | 192 kts | 230° |
| 2026-05-01 09:40 | 55.64829 | 91.35836 | 8098 ft | 192 kts | 230° |
| 2026-05-01 09:40 | 55.63909 | 91.34130 | 8099 ft | 191 kts | 230° |
| 2026-05-01 09:41 | 55.62987 | 91.32420 | 8094 ft | 192 kts | 230° |
| 2026-05-01 09:41 | 55.61140 | 91.28999 | 8094 ft | 192 kts | 230° |
| 2026-05-01 09:41 | 55.60228 | 91.27313 | 8094 ft | 192 kts | 230° |
| 2026-05-01 09:42 | 55.59294 | 91.25587 | 8097 ft | 192 kts | 230° |
| 2026-05-01 09:42 | 55.58381 | 91.23899 | 8092 ft | 192 kts | 230° |
| 2026-05-01 09:42 | 55.56537 | 91.20496 | 8097 ft | 191 kts | 230° |
| 2026-05-01 09:43 | 55.54691 | 91.17094 | 8095 ft | 192 kts | 230° |
| 2026-05-01 09:43 | 55.53768 | 91.15395 | 8097 ft | 192 kts | 230° |
| 2026-05-01 09:43 | 55.52842 | 91.13691 | 8096 ft | 192 kts | 230° |
| 2026-05-01 09:44 | 55.51111 | 91.10159 | 8081 ft | 191 kts | 238° |
| 2026-05-01 09:44 | 55.50337 | 91.08259 | 8083 ft | 191 kts | 237° |
| 2026-05-01 09:44 | 55.49556 | 91.06363 | 8083 ft | 191 kts | 237° |
| 2026-05-01 09:45 | 55.48776 | 91.04471 | 8083 ft | 191 kts | 237° |
| 2026-05-01 09:45 | 55.47215 | 91.00683 | 8084 ft | 191 kts | 237° |
| 2026-05-01 09:45 | 55.46436 | 90.98794 | 8087 ft | 191 kts | 237° |
| 2026-05-01 09:46 | 55.45653 | 90.96899 | 8088 ft | 191 kts | 237° |
| 2026-05-01 09:46 | 55.44872 | 90.95009 | 8088 ft | 191 kts | 237° |
| 2026-05-01 09:46 | 55.44089 | 90.93115 | 8088 ft | 191 kts | 237° |
| 2026-05-01 09:46 | 55.43305 | 90.91223 | 8088 ft | 191 kts | 237° |
| 2026-05-01 09:47 | 55.42523 | 90.89334 | 8087 ft | 191 kts | 237° |
| 2026-05-01 09:47 | 55.41747 | 90.87464 | 8085 ft | 191 kts | 237° |
| 2026-05-01 09:47 | 55.40965 | 90.85577 | 8087 ft | 191 kts | 237° |
| 2026-05-01 09:47 | 55.40178 | 90.83682 | 8087 ft | 191 kts | 237° |
| 2026-05-01 09:48 | 55.39393 | 90.81792 | 8087 ft | 191 kts | 237° |
| 2026-05-01 09:48 | 55.38607 | 90.79902 | 8087 ft | 191 kts | 237° |
| 2026-05-01 09:48 | 55.37821 | 90.78016 | 8086 ft | 191 kts | 237° |
| 2026-05-01 09:48 | 55.37034 | 90.76125 | 8086 ft | 192 kts | 237° |
| 2026-05-01 09:49 | 55.36245 | 90.74233 | 8089 ft | 192 kts | 237° |
| 2026-05-01 09:49 | 55.35456 | 90.72342 | 8089 ft | 192 kts | 237° |
| 2026-05-01 09:49 | 55.34666 | 90.70448 | 8084 ft | 192 kts | 237° |
| 2026-05-01 09:49 | 55.33876 | 90.68559 | 8086 ft | 192 kts | 237° |
| 2026-05-01 09:50 | 55.33088 | 90.66672 | 8086 ft | 191 kts | 237° |
| 2026-05-01 09:50 | 55.32302 | 90.64793 | 8080 ft | 191 kts | 237° |
| 2026-05-01 09:50 | 55.31513 | 90.62909 | 8085 ft | 191 kts | 237° |
| 2026-05-01 09:50 | 55.30724 | 90.61028 | 8081 ft | 191 kts | 237° |
| 2026-05-01 09:51 | 55.29945 | 90.59168 | 8085 ft | 192 kts | 237° |
| 2026-05-01 09:51 | 55.29152 | 90.57280 | 8085 ft | 192 kts | 237° |
| 2026-05-01 09:51 | 55.28359 | 90.55392 | 8084 ft | 192 kts | 237° |
| 2026-05-01 09:51 | 55.27568 | 90.53511 | 8081 ft | 192 kts | 236° |
| 2026-05-01 09:52 | 55.26776 | 90.51628 | 8082 ft | 192 kts | 236° |
| 2026-05-01 09:52 | 55.25982 | 90.49743 | 8081 ft | 192 kts | 237° |
| 2026-05-01 09:52 | 55.25192 | 90.47866 | 8084 ft | 192 kts | 237° |
| 2026-05-01 09:52 | 55.24401 | 90.45990 | 8083 ft | 191 kts | 237° |
| 2026-05-01 09:53 | 55.23609 | 90.44112 | 8085 ft | 191 kts | 237° |
| 2026-05-01 09:53 | 55.22817 | 90.42236 | 8082 ft | 192 kts | 237° |
| 2026-05-01 09:53 | 55.22024 | 90.40361 | 8084 ft | 192 kts | 237° |
| 2026-05-01 09:53 | 55.21228 | 90.38479 | 8084 ft | 192 kts | 237° |
| 2026-05-01 09:54 | 55.20445 | 90.36631 | 8085 ft | 192 kts | 236° |
| 2026-05-01 09:54 | 55.19650 | 90.34751 | 8084 ft | 192 kts | 236° |
| 2026-05-01 09:54 | 55.18853 | 90.32871 | 8085 ft | 192 kts | 236° |
| 2026-05-01 09:54 | 55.18057 | 90.30994 | 8080 ft | 192 kts | 236° |
| 2026-05-01 09:55 | 55.17260 | 90.29118 | 8085 ft | 192 kts | 236° |
| 2026-05-01 09:55 | 55.16464 | 90.27245 | 8085 ft | 192 kts | 236° |
| 2026-05-01 09:55 | 55.15670 | 90.25376 | 8086 ft | 192 kts | 236° |
| 2026-05-01 09:55 | 55.14874 | 90.23506 | 8086 ft | 191 kts | 236° |
| 2026-05-01 09:56 | 55.14347 | 90.22269 | 8084 ft | 191 kts | 236° |
| 2026-05-01 09:56 | 55.13551 | 90.20401 | 8089 ft | 192 kts | 236° |
| 2026-05-01 09:56 | 55.12755 | 90.18534 | 8089 ft | 192 kts | 236° |
| 2026-05-01 09:56 | 55.11700 | 90.16060 | 8089 ft | 192 kts | 236° |
| 2026-05-01 09:57 | 55.10903 | 90.14194 | 8089 ft | 192 kts | 236° |
| 2026-05-01 09:57 | 55.10363 | 90.12932 | 8089 ft | 192 kts | 236° |
| 2026-05-01 09:57 | 55.09576 | 90.11090 | 8089 ft | 192 kts | 236° |
| 2026-05-01 09:57 | 55.08778 | 90.09225 | 8085 ft | 192 kts | 236° |
| 2026-05-01 09:58 | 55.07979 | 90.07360 | 8084 ft | 191 kts | 236° |
| 2026-05-01 09:58 | 55.07183 | 90.05502 | 8084 ft | 191 kts | 236° |
| 2026-05-01 09:58 | 55.06387 | 90.03648 | 8084 ft | 191 kts | 236° |
| 2026-05-01 09:58 | 55.05590 | 90.01791 | 8086 ft | 191 kts | 236° |
| 2026-05-01 09:59 | 55.04791 | 89.99931 | 8088 ft | 191 kts | 236° |
| 2026-05-01 09:59 | 55.03994 | 89.98075 | 8085 ft | 191 kts | 236° |
| 2026-05-01 09:59 | 55.03195 | 89.96219 | 8088 ft | 191 kts | 236° |
| 2026-05-01 09:59 | 55.02394 | 89.94359 | 8088 ft | 192 kts | 235° |
| 2026-05-01 10:00 | 55.01594 | 89.92502 | 8086 ft | 191 kts | 235° |
| 2026-05-01 10:00 | 55.00796 | 89.90651 | 8080 ft | 191 kts | 236° |
| 2026-05-01 10:00 | 54.99994 | 89.88793 | 8081 ft | 192 kts | 236° |
| 2026-05-01 10:00 | 54.99198 | 89.86950 | 8082 ft | 193 kts | 235° |
| 2026-05-01 10:01 | 54.98391 | 89.85082 | 8082 ft | 193 kts | 235° |
| 2026-05-01 10:01 | 54.97583 | 89.83214 | 8083 ft | 193 kts | 235° |
| 2026-05-01 10:01 | 54.96777 | 89.81352 | 8084 ft | 192 kts | 236° |
| 2026-05-01 10:01 | 54.95973 | 89.79496 | 8084 ft | 192 kts | 235° |
| 2026-05-01 10:02 | 54.95167 | 89.77636 | 8085 ft | 192 kts | 235° |
| 2026-05-01 10:02 | 54.94360 | 89.75776 | 8084 ft | 193 kts | 235° |
| 2026-05-01 10:02 | 54.93554 | 89.73919 | 8084 ft | 192 kts | 235° |
| 2026-05-01 10:02 | 54.92746 | 89.72060 | 8085 ft | 193 kts | 235° |
| 2026-05-01 10:03 | 54.91936 | 89.70197 | 8088 ft | 193 kts | 235° |
| 2026-05-01 10:03 | 54.91126 | 89.68334 | 8085 ft | 193 kts | 235° |
| 2026-05-01 10:03 | 54.90316 | 89.66477 | 8083 ft | 193 kts | 235° |
| 2026-05-01 10:03 | 54.89518 | 89.64645 | 8086 ft | 192 kts | 235° |
| 2026-05-01 10:04 | 54.88710 | 89.62792 | 8086 ft | 193 kts | 235° |
| 2026-05-01 10:04 | 54.87899 | 89.60933 | 8088 ft | 193 kts | 235° |
| 2026-05-01 10:04 | 54.87087 | 89.59072 | 8087 ft | 193 kts | 235° |
| 2026-05-01 10:04 | 54.86273 | 89.57212 | 7978 ft | 193 kts | 234° |
| 2026-05-01 10:05 | 54.85450 | 89.55335 | 7942 ft | 197 kts | 232° |
| 2026-05-01 10:05 | 54.84617 | 89.53429 | 7871 ft | 197 kts | 233° |
| 2026-05-01 10:05 | 54.83797 | 89.51555 | 7870 ft | 194 kts | 232° |
| 2026-05-01 10:05 | 54.83000 | 89.49736 | 7974 ft | 189 kts | 235° |
| 2026-05-01 10:06 | 54.82214 | 89.47946 | 8085 ft | 185 kts | 235° |
| 2026-05-01 10:06 | 54.81425 | 89.46148 | 8091 ft | 189 kts | 235° |
| 2026-05-01 10:06 | 54.80626 | 89.44329 | 8089 ft | 190 kts | 235° |
| 2026-05-01 10:06 | 54.79818 | 89.42492 | 8091 ft | 191 kts | 235° |
| 2026-05-01 10:07 | 54.79011 | 89.40657 | 8090 ft | 192 kts | 235° |
| 2026-05-01 10:07 | 54.78198 | 89.38812 | 8089 ft | 193 kts | 235° |
| 2026-05-01 10:07 | 54.77383 | 89.36964 | 8089 ft | 193 kts | 235° |
| 2026-05-01 10:07 | 54.76569 | 89.35117 | 8092 ft | 193 kts | 235° |
| 2026-05-01 10:08 | 54.74948 | 89.31444 | 8088 ft | 194 kts | 235° |
| 2026-05-01 10:08 | 54.74129 | 89.29591 | 8087 ft | 194 kts | 235° |
| 2026-05-01 10:08 | 54.73308 | 89.27736 | 8087 ft | 194 kts | 235° |
| 2026-05-01 10:09 | 54.72489 | 89.25887 | 8087 ft | 194 kts | 235° |
| 2026-05-01 10:09 | 54.71671 | 89.24039 | 8090 ft | 193 kts | 235° |
| 2026-05-01 10:09 | 54.70855 | 89.22199 | 8092 ft | 193 kts | 235° |
| 2026-05-01 10:09 | 54.70036 | 89.20352 | 8094 ft | 193 kts | 235° |
| 2026-05-01 10:10 | 54.69217 | 89.18508 | 8094 ft | 194 kts | 235° |
| 2026-05-01 10:10 | 54.68396 | 89.16660 | 8094 ft | 194 kts | 235° |
| 2026-05-01 10:10 | 54.66748 | 89.12954 | 8097 ft | 194 kts | 235° |
| 2026-05-01 10:11 | 54.65923 | 89.11103 | 8100 ft | 194 kts | 235° |
| 2026-05-01 10:11 | 54.65108 | 89.09273 | 8100 ft | 194 kts | 234° |
| 2026-05-01 10:11 | 54.64284 | 89.07425 | 8100 ft | 194 kts | 234° |
| 2026-05-01 10:11 | 54.63458 | 89.05574 | 8100 ft | 194 kts | 234° |
| 2026-05-01 10:12 | 54.62632 | 89.03725 | 8100 ft | 195 kts | 234° |
| 2026-05-01 10:12 | 54.61804 | 89.01875 | 8098 ft | 194 kts | 234° |
| 2026-05-01 10:12 | 54.60153 | 88.98182 | 8099 ft | 194 kts | 234° |
| 2026-05-01 10:13 | 54.59326 | 88.96336 | 8095 ft | 194 kts | 234° |
| 2026-05-01 10:13 | 54.58499 | 88.94493 | 8099 ft | 194 kts | 234° |
| 2026-05-01 10:13 | 54.57671 | 88.92646 | 8096 ft | 194 kts | 234° |
| 2026-05-01 10:14 | 54.56009 | 88.88948 | 8099 ft | 195 kts | 234° |
| 2026-05-01 10:14 | 54.55179 | 88.87100 | 8100 ft | 195 kts | 234° |
| 2026-05-01 10:14 | 54.54344 | 88.85245 | 8104 ft | 195 kts | 234° |
| 2026-05-01 10:14 | 54.53521 | 88.83417 | 8106 ft | 195 kts | 233° |
| 2026-05-01 10:15 | 54.52684 | 88.81604 | 8111 ft | 192 kts | 234° |
| 2026-05-01 10:15 | 54.51881 | 88.79765 | 8113 ft | 193 kts | 234° |
| 2026-05-01 10:15 | 54.51049 | 88.77923 | 8114 ft | 194 kts | 233° |
| 2026-05-01 10:15 | 54.50214 | 88.76086 | 8114 ft | 195 kts | 233° |
| 2026-05-01 10:16 | 54.49391 | 88.74267 | 8120 ft | 195 kts | 233° |
| 2026-05-01 10:16 | 54.48556 | 88.72419 | 8114 ft | 195 kts | 233° |
| 2026-05-01 10:16 | 54.46898 | 88.68682 | 8113 ft | 197 kts | 239° |
| 2026-05-01 10:17 | 54.46197 | 88.66667 | 8114 ft | 196 kts | 240° |
| 2026-05-01 10:17 | 54.44798 | 88.62678 | 8116 ft | 195 kts | 240° |
| 2026-05-01 10:17 | 54.44094 | 88.60682 | 8113 ft | 195 kts | 240° |
| 2026-05-01 10:18 | 54.42690 | 88.56696 | 8118 ft | 195 kts | 240° |
| 2026-05-01 10:18 | 54.41984 | 88.54696 | 8118 ft | 195 kts | 240° |
| 2026-05-01 10:18 | 54.41280 | 88.52704 | 8117 ft | 195 kts | 240° |
| 2026-05-01 10:19 | 54.40576 | 88.50714 | 8115 ft | 195 kts | 240° |
| 2026-05-01 10:19 | 54.39880 | 88.48746 | 8115 ft | 195 kts | 240° |
| 2026-05-01 10:19 | 54.39176 | 88.46755 | 8116 ft | 195 kts | 240° |
| 2026-05-01 10:20 | 54.37767 | 88.42780 | 8116 ft | 195 kts | 240° |
| 2026-05-01 10:20 | 54.37060 | 88.40789 | 8115 ft | 195 kts | 240° |
| 2026-05-01 10:20 | 54.36355 | 88.38803 | 8111 ft | 195 kts | 240° |
| 2026-05-01 10:20 | 54.35648 | 88.36815 | 8112 ft | 195 kts | 240° |
| 2026-05-01 10:21 | 54.34945 | 88.34839 | 8114 ft | 197 kts | 240° |
| 2026-05-01 10:21 | 54.33526 | 88.30854 | 8113 ft | 196 kts | 240° |
| 2026-05-01 10:21 | 54.32815 | 88.28859 | 8095 ft | 196 kts | 240° |
| 2026-05-01 10:22 | 54.31394 | 88.24880 | 8095 ft | 195 kts | 240° |
| 2026-05-01 10:22 | 54.29977 | 88.20910 | 8096 ft | 196 kts | 240° |
| 2026-05-01 10:23 | 54.29262 | 88.18923 | 8100 ft | 196 kts | 240° |
| 2026-05-01 10:23 | 54.27835 | 88.14942 | 8100 ft | 196 kts | 240° |
| 2026-05-01 10:23 | 54.27121 | 88.12950 | 8101 ft | 196 kts | 240° |
| 2026-05-01 10:24 | 54.25701 | 88.09000 | 8096 ft | 196 kts | 240° |
| 2026-05-01 10:24 | 54.24264 | 88.05006 | 8083 ft | 196 kts | 240° |
| 2026-05-01 10:25 | 54.22844 | 88.01068 | 8079 ft | 196 kts | 239° |
| 2026-05-01 10:25 | 54.21409 | 87.97095 | 8080 ft | 197 kts | 239° |
| 2026-05-01 10:26 | 54.20688 | 87.95101 | 8077 ft | 197 kts | 239° |
| 2026-05-01 10:26 | 54.19968 | 87.93111 | 8077 ft | 197 kts | 239° |
| 2026-05-01 10:26 | 54.18525 | 87.89127 | 8076 ft | 197 kts | 239° |
| 2026-05-01 10:27 | 54.17080 | 87.85142 | 8068 ft | 198 kts | 239° |
| 2026-05-01 10:27 | 54.15629 | 87.81152 | 8067 ft | 198 kts | 239° |
| 2026-05-01 10:28 | 54.14905 | 87.79161 | 8067 ft | 197 kts | 239° |
| 2026-05-01 10:28 | 54.13462 | 87.75198 | 8067 ft | 197 kts | 239° |
| 2026-05-01 10:28 | 54.12737 | 87.73211 | 8067 ft | 197 kts | 239° |
| 2026-05-01 10:29 | 54.11287 | 87.69243 | 8064 ft | 197 kts | 239° |
| 2026-05-01 10:29 | 54.10569 | 87.67276 | 8062 ft | 197 kts | 239° |
| 2026-05-01 10:30 | 54.09121 | 87.63320 | 8062 ft | 196 kts | 239° |
| 2026-05-01 10:30 | 54.07674 | 87.59375 | 8061 ft | 196 kts | 239° |
| 2026-05-01 10:31 | 54.06225 | 87.55428 | 8063 ft | 197 kts | 239° |
| 2026-05-01 10:31 | 54.05256 | 87.51169 | 8060 ft | 195 kts | 269° |
| 2026-05-01 10:32 | 54.05472 | 87.46579 | 8063 ft | 194 kts | 276° |
| 2026-05-01 10:32 | 54.05585 | 87.44293 | 8062 ft | 194 kts | 276° |
| 2026-05-01 10:32 | 54.05812 | 87.39729 | 7940 ft | 187 kts | 276° |
| 2026-05-01 10:33 | 54.05998 | 87.35830 | 7095 ft | 159 kts | 276° |
| 2026-05-01 10:33 | 54.06178 | 87.32148 | 6259 ft | 154 kts | 276° |
| 2026-05-01 10:34 | 54.06267 | 87.30329 | 5827 ft | 152 kts | 276° |
| 2026-05-01 10:34 | 54.06354 | 87.28541 | 5403 ft | 151 kts | 276° |
| 2026-05-01 10:34 | 54.06441 | 87.26758 | 4980 ft | 150 kts | 275° |
| 2026-05-01 10:35 | 54.06609 | 87.23271 | 4128 ft | 148 kts | 275° |
| 2026-05-01 10:35 | 54.06693 | 87.21523 | 3705 ft | 147 kts | 275° |
| 2026-05-01 10:35 | 54.06776 | 87.19788 | 3284 ft | 147 kts | 275° |
| 2026-05-01 10:35 | 54.06858 | 87.18061 | 2877 ft | 145 kts | 275° |
| 2026-05-01 10:36 | 54.07004 | 87.14974 | 2559 ft | 108 kts | 276° |
| 2026-05-01 10:36 | 54.07057 | 87.13828 | 2560 ft | 89 kts | 276° |
| 2026-05-01 10:36 | 54.07104 | 87.12779 | 2657 ft | 97 kts | 276° |
| 2026-05-01 10:37 | 54.07170 | 87.11575 | 2612 ft | 97 kts | 276° |
| 2026-05-01 10:37 | 54.07291 | 87.09028 | 2580 ft | 133 kts | 275° |
| 2026-05-01 10:37 | 54.07370 | 87.07363 | 2580 ft | 147 kts | 275° |
| 2026-05-01 10:38 | 54.07368 | 87.05583 | 2573 ft | 154 kts | 257° |
| 2026-05-01 10:38 | 54.06854 | 87.03976 | 2571 ft | 158 kts | 227° |
| 2026-05-01 10:38 | 54.05929 | 87.03002 | 2566 ft | 159 kts | 199° |
| 2026-05-01 10:38 | 54.04877 | 87.02373 | 2568 ft | 159 kts | 199° |
| 2026-05-01 10:39 | 54.03829 | 87.01736 | 2568 ft | 160 kts | 199° |
| 2026-05-01 10:39 | 54.02796 | 87.01099 | 2568 ft | 160 kts | 199° |
| 2026-05-01 10:39 | 54.01752 | 87.00455 | 2569 ft | 160 kts | 199° |
| 2026-05-01 10:39 | 54.00708 | 86.99811 | 2568 ft | 160 kts | 199° |
| 2026-05-01 10:40 | 54.00015 | 86.99385 | 2569 ft | 160 kts | 199° |
| 2026-05-01 10:40 | 53.98616 | 86.98523 | 2569 ft | 160 kts | 199° |
| 2026-05-01 10:40 | 53.97924 | 86.98097 | 2569 ft | 160 kts | 199° |
| 2026-05-01 10:40 | 53.96930 | 86.97485 | 2574 ft | 138 kts | 199° |
| 2026-05-01 10:41 | 53.96073 | 86.96958 | 2564 ft | 126 kts | 199° |
| 2026-05-01 10:41 | 53.95265 | 86.96462 | 2565 ft | 122 kts | 199° |
| 2026-05-01 10:41 | 53.93689 | 86.95493 | 2566 ft | 119 kts | 199° |
| 2026-05-01 10:42 | 53.92908 | 86.95015 | 2566 ft | 119 kts | 199° |
| 2026-05-01 10:42 | 53.92122 | 86.94532 | 2567 ft | 120 kts | 199° |
| 2026-05-01 10:42 | 53.91348 | 86.94057 | 2567 ft | 120 kts | 199° |
| 2026-05-01 10:42 | 53.90564 | 86.93576 | 2567 ft | 120 kts | 199° |
| 2026-05-01 10:43 | 53.89779 | 86.93096 | 2567 ft | 119 kts | 199° |
| 2026-05-01 10:43 | 53.88999 | 86.92617 | 2567 ft | 119 kts | 199° |
| 2026-05-01 10:43 | 53.88215 | 86.92139 | 2525 ft | 122 kts | 198° |
| 2026-05-01 10:43 | 53.87384 | 86.91650 | 2358 ft | 129 kts | 199° |
| 2026-05-01 10:44 | 53.86532 | 86.91138 | 2118 ft | 124 kts | 199° |
| 2026-05-01 10:44 | 53.85749 | 86.90637 | 1764 ft | 126 kts | 200° |
| 2026-05-01 10:44 | 53.84928 | 86.90136 | 1726 ft | 122 kts | 198° |
| 2026-05-01 10:44 | 53.84162 | 86.89678 | 1427 ft | 121 kts | 200° |
| 2026-05-01 10:45 | 53.83389 | 86.89198 | 1277 ft | 115 kts | 200° |
| 2026-05-01 10:45 | 53.82657 | 86.88745 | 1121 ft | 112 kts | 200° |
| 2026-05-01 10:45 | 53.81947 | 86.88303 | 1010 ft | 94 kts | 200° |
| 2026-05-01 10:45 | 53.81591 | 86.88103 | 1006 ft | 0 kts | 173° |